createdAt,value
2019-04-29T00:01:31.030Z,2.30
2019-04-29T00:04:00.211Z,2.30
2019-04-29T00:06:29.256Z,2.30
2019-04-29T00:08:58.375Z,1.60
2019-04-29T00:11:27.535Z,2.30
2019-04-29T00:13:56.727Z,2.30
2019-04-29T00:16:43.598Z,2.40
2019-04-29T00:19:26.115Z,2.40
2019-04-29T00:21:55.270Z,2.30
2019-04-29T00:24:24.331Z,2.30
2019-04-29T00:26:53.526Z,2.20
2019-04-29T00:29:22.666Z,2.20
2019-04-29T00:31:51.859Z,2.10
2019-04-29T00:34:20.910Z,2.10
2019-04-29T00:36:51.626Z,1.10
2019-04-29T00:39:25.007Z,3.30
2019-04-29T00:42:11.950Z,2.10
2019-04-29T00:44:41.137Z,1.20
2019-04-29T00:47:10.242Z,2.00
2019-04-29T00:49:39.311Z,1.90
2019-04-29T00:52:08.503Z,1.90
2019-04-29T00:54:39.259Z,1.80
2019-04-29T00:57:08.347Z,1.80
2019-04-29T00:59:37.395Z,1.80
2019-04-29T01:02:07.711Z,1.80
2019-04-29T01:04:36.955Z,1.70
2019-04-29T01:07:06.339Z,1.70
2019-04-29T01:09:35.627Z,0.80
2019-04-29T01:12:06.051Z,1.70
2019-04-29T01:14:35.170Z,1.70
2019-04-29T01:17:04.286Z,1.70
2019-04-29T01:19:35.007Z,1.70
2019-04-29T01:22:04.878Z,1.70
2019-04-29T01:24:33.867Z,1.70
2019-04-29T01:27:23.025Z,1.70
2019-04-29T01:29:52.077Z,1.60
2019-04-29T01:32:21.304Z,1.60
2019-04-29T01:34:52.022Z,1.60
2019-04-29T01:37:22.790Z,2.80
2019-04-29T01:39:53.547Z,1.50
2019-04-29T01:42:24.395Z,1.40
2019-04-29T01:44:53.511Z,1.50
2019-04-29T01:47:22.564Z,1.40
2019-04-29T01:49:51.639Z,1.40
2019-04-29T01:52:20.689Z,1.40
2019-04-29T01:54:49.751Z,1.50
2019-04-29T01:57:18.811Z,1.50
2019-04-29T01:59:47.846Z,1.50
2019-04-29T02:02:16.977Z,2.90
2019-04-29T02:04:46.071Z,1.40
2019-04-29T02:07:15.197Z,1.40
2019-04-29T02:09:54.835Z,1.40
2019-04-29T02:12:23.887Z,1.30
2019-04-29T02:14:53.002Z,1.20
2019-04-29T02:17:22.219Z,1.20
2019-04-29T02:19:51.263Z,1.20
2019-04-29T02:22:39.902Z,1.20
2019-04-29T02:25:17.098Z,0.70
2019-04-29T02:27:46.175Z,1.20
2019-04-29T02:30:30.045Z,1.20
2019-04-29T02:32:59.276Z,1.20
2019-04-29T02:35:28.308Z,1.20
2019-04-29T02:37:57.532Z,1.10
2019-04-29T02:40:37.103Z,1.10
2019-04-29T02:43:07.791Z,1.00
2019-04-29T02:45:37.010Z,0.90
2019-04-29T02:48:06.198Z,1.00
2019-04-29T02:50:35.257Z,0.90
2019-04-29T02:53:04.373Z,0.90
2019-04-29T02:55:35.080Z,1.00
2019-04-29T02:58:05.963Z,1.00
2019-04-29T03:00:39.980Z,0.90
2019-04-29T03:03:22.686Z,1.00
2019-04-29T03:05:53.448Z,1.00
2019-04-29T03:08:22.611Z,1.00
2019-04-29T03:10:51.672Z,1.00
2019-04-29T03:13:20.970Z,1.00
2019-04-29T03:15:50.256Z,1.00
2019-04-29T03:18:20.895Z,1.00
2019-04-29T03:20:51.587Z,1.00
2019-04-29T03:23:22.286Z,1.10
2019-04-29T03:25:51.328Z,1.40
2019-04-29T03:28:20.379Z,1.40
2019-04-29T03:30:49.419Z,1.40
2019-04-29T03:33:18.487Z,1.40
2019-04-29T03:35:47.539Z,1.40
2019-04-29T03:38:16.655Z,1.50
2019-04-29T03:40:45.726Z,1.50
2019-04-29T03:43:14.772Z,1.50
2019-04-29T03:45:43.856Z,1.50
2019-04-29T03:48:12.991Z,1.70
2019-04-29T03:50:42.041Z,1.70
2019-04-29T03:53:11.105Z,1.70
2019-04-29T03:58:06.625Z,1.80
2019-04-29T04:00:35.764Z,1.80
2019-04-29T04:03:18.763Z,1.90
2019-04-29T04:05:58.228Z,2.00
2019-04-29T04:08:28.915Z,2.10
2019-04-29T04:10:57.958Z,2.20
2019-04-29T04:13:27.007Z,2.30
2019-04-29T04:15:56.085Z,2.30
2019-04-29T04:18:26.789Z,2.40
2019-04-29T04:20:55.896Z,2.70
2019-04-29T04:23:24.981Z,3.00
2019-04-29T04:25:54.087Z,3.30
2019-04-29T04:28:23.255Z,3.60
2019-04-29T04:30:52.295Z,3.90
2019-04-29T04:33:21.343Z,4.10
2019-04-29T04:35:50.385Z,4.30
2019-04-29T04:38:19.442Z,4.50
2019-04-29T04:40:55.728Z,4.70
2019-04-29T04:43:24.799Z,4.80
2019-04-29T04:45:53.852Z,4.10
2019-04-29T04:48:22.895Z,4.40
2019-04-29T04:50:52.139Z,5.00
2019-04-29T04:53:21.175Z,5.20
2019-04-29T04:55:51.870Z,5.30
2019-04-29T04:58:21.044Z,5.50
2019-04-29T05:00:50.266Z,5.60
2019-04-29T05:03:19.397Z,5.80
2019-04-29T05:05:48.452Z,5.80
2019-04-29T05:08:17.743Z,6.00
2019-04-29T05:10:46.963Z,5.90
2019-04-29T05:13:27.271Z,6.10
2019-04-29T05:15:47.181Z,6.10
2019-04-29T05:18:18.052Z,6.20
2019-04-29T05:20:47.119Z,6.20
2019-04-29T05:23:16.338Z,6.40
2019-04-29T05:25:45.510Z,6.60
2019-04-29T05:28:14.947Z,6.60
2019-04-29T05:30:44.191Z,6.60
2019-04-29T05:33:13.291Z,6.60
2019-04-29T05:35:47.607Z,6.70
2019-04-29T05:38:18.409Z,6.80
2019-04-29T05:40:56.750Z,6.90
2019-04-29T05:43:41.104Z,7.00
2019-04-29T05:46:24.066Z,7.00
2019-04-29T05:48:53.538Z,7.10
2019-04-29T05:51:39.214Z,7.00
2019-04-29T05:54:19.325Z,7.10
2019-04-29T05:56:48.650Z,7.20
2019-04-29T05:59:18.026Z,7.40
2019-04-29T06:01:48.948Z,7.40
2019-04-29T06:04:20.757Z,7.50
2019-04-29T06:06:51.328Z,7.60
2019-04-29T06:09:22.337Z,7.70
2019-04-29T06:11:52.248Z,7.80
2019-04-29T06:14:22.410Z,7.80
2019-04-29T06:16:57.577Z,7.90
2019-04-29T06:19:24.962Z,8.00
2019-04-29T06:21:55.355Z,8.00
2019-04-29T06:24:27.863Z,8.00
2019-04-29T06:26:59.355Z,8.10
2019-04-29T06:29:28.440Z,8.10
2019-04-29T06:31:57.496Z,8.20
2019-04-29T06:34:27.749Z,7.60
2019-04-29T06:36:56.791Z,9.20
2019-04-29T06:39:25.851Z,8.30
2019-04-29T06:41:54.986Z,8.40
2019-04-29T06:44:24.039Z,8.20
2019-04-29T06:46:54.608Z,8.10
2019-04-29T06:49:35.447Z,8.20
2019-04-29T06:52:08.063Z,8.40
2019-04-29T07:00:17.539Z,8.60
2019-04-29T07:03:00.284Z,8.70
2019-04-29T07:05:41.085Z,8.60
2019-04-29T07:14:14.350Z,9.20
2019-04-29T07:25:24.800Z,9.80
2019-04-29T07:28:00.023Z,8.80
2019-04-29T07:30:59.914Z,10.00
2019-04-29T07:33:21.980Z,10.10
2019-04-29T07:35:47.916Z,9.60
2019-04-29T07:38:16.440Z,10.40
2019-04-29T07:40:45.865Z,10.60
2019-04-29T07:43:15.129Z,10.60
2019-04-29T07:46:03.597Z,10.80
2019-04-29T07:48:37.009Z,10.90
2019-04-29T07:51:05.900Z,10.90
2019-04-29T07:53:45.401Z,10.20
2019-04-29T07:56:25.182Z,8.90
2019-04-29T07:59:02.567Z,10.40
2019-04-29T08:01:38.231Z,10.60
2019-04-29T08:04:26.940Z,10.60
2019-04-29T08:06:58.511Z,10.60
2019-04-29T08:09:31.977Z,10.90
2019-04-29T08:12:01.891Z,11.00
2019-04-29T08:14:39.519Z,11.10
2019-04-29T08:17:13.931Z,11.20
2019-04-29T08:19:45.314Z,11.20
2019-04-29T08:22:22.506Z,11.10
2019-04-29T08:24:52.176Z,10.20
2019-04-29T08:27:39.863Z,11.30
2019-04-29T08:30:06.731Z,11.20
2019-04-29T08:35:09.964Z,11.20
2019-04-29T08:37:39.303Z,11.00
2019-04-29T08:40:17.023Z,11.10
2019-04-29T08:48:40.446Z,11.70
2019-04-29T08:51:33.632Z,11.80
2019-04-29T08:54:16.145Z,11.70
2019-04-29T08:57:02.731Z,11.70
2019-04-29T08:59:34.115Z,11.60
2019-04-29T09:05:10.613Z,11.70
2019-04-29T09:13:40.246Z,11.90
2019-04-29T09:16:20.587Z,11.90
2019-04-29T09:21:52.369Z,12.90
2019-04-29T09:24:22.043Z,12.20
2019-04-29T09:26:53.038Z,12.10
2019-04-29T09:29:37.065Z,12.00
2019-04-29T09:32:07.511Z,12.00
2019-04-29T09:34:36.806Z,12.00
2019-04-29T09:37:06.480Z,12.00
2019-04-29T09:39:43.418Z,12.10
2019-04-29T09:42:14.534Z,12.30
2019-04-29T09:45:01.230Z,12.30
2019-04-29T09:47:31.614Z,12.30
2019-04-29T09:50:00.666Z,12.30
2019-04-29T09:52:30.121Z,12.60
2019-04-29T09:57:29.709Z,12.60
2019-04-29T10:00:05.471Z,13.60
2019-04-29T10:02:35.953Z,12.90
2019-04-29T10:05:24.831Z,13.10
2019-04-29T10:07:53.912Z,13.40
2019-04-29T10:10:24.724Z,13.60
2019-04-29T10:12:54.215Z,13.70
2019-04-29T10:15:43.907Z,13.90
2019-04-29T10:18:35.235Z,14.00
2019-04-29T10:21:16.676Z,14.10
2019-04-29T10:29:45.872Z,14.50
2019-04-29T10:32:15.093Z,14.70
2019-04-29T10:34:44.238Z,14.60
2019-04-29T10:37:13.510Z,14.70
2019-04-29T10:39:46.958Z,14.70
2019-04-29T10:42:32.376Z,14.80
2019-04-29T10:45:21.938Z,14.90
2019-04-29T10:47:55.549Z,15.00
2019-04-29T10:50:26.912Z,15.00
2019-04-29T10:52:56.198Z,14.80
2019-04-29T10:55:30.101Z,14.80
2019-04-29T10:57:56.650Z,14.70
2019-04-29T11:00:39.861Z,14.80
2019-04-29T11:03:08.963Z,14.70
2019-04-29T11:05:44.694Z,14.80
2019-04-29T11:08:12.398Z,14.80
2019-04-29T11:10:41.897Z,14.90
2019-04-29T11:13:11.373Z,15.00
2019-04-29T11:15:40.830Z,15.00
2019-04-29T11:18:10.104Z,15.50
2019-04-29T11:20:39.393Z,15.10
2019-04-29T11:23:28.202Z,15.10
2019-04-29T11:26:01.968Z,15.10
2019-04-29T11:28:31.796Z,15.00
2019-04-29T11:31:01.893Z,15.00
2019-04-29T11:33:35.600Z,15.10
2019-04-29T11:38:54.235Z,15.10
2019-04-29T11:41:24.614Z,15.20
2019-04-29T11:43:53.934Z,15.10
2019-04-29T11:46:23.691Z,15.00
2019-04-29T11:48:54.470Z,14.90
2019-04-29T11:51:43.852Z,14.90
2019-04-29T11:54:08.252Z,15.00
2019-04-29T11:56:35.825Z,14.90
2019-04-29T11:59:09.745Z,15.00
2019-04-29T12:01:46.922Z,15.00
2019-04-29T12:04:12.966Z,14.90
2019-04-29T12:06:42.199Z,14.70
2019-04-29T12:09:17.844Z,14.50
2019-04-29T12:11:47.135Z,14.30
2019-04-29T12:14:38.094Z,14.40
2019-04-29T12:17:11.049Z,14.50
2019-04-29T12:19:44.315Z,14.50
2019-04-29T12:22:26.849Z,14.50
2019-04-29T12:24:44.067Z,14.40
2019-04-29T12:27:14.863Z,14.30
2019-04-29T12:29:48.861Z,14.30
2019-04-29T12:32:26.670Z,14.70
2019-04-29T12:35:16.740Z,14.30
2019-04-29T12:38:05.855Z,14.20
2019-04-29T12:40:36.163Z,14.20
2019-04-29T12:43:22.860Z,14.20
2019-04-29T12:45:53.897Z,14.20
2019-04-29T12:48:25.044Z,14.20
2019-04-29T12:50:57.414Z,14.50
2019-04-29T12:53:24.734Z,14.20
2019-04-29T12:55:55.557Z,14.20
2019-04-29T12:58:25.826Z,14.10
2019-04-29T13:01:01.284Z,14.00
2019-04-29T13:03:39.887Z,13.90
2019-04-29T13:06:10.047Z,13.90
2019-04-29T13:08:40.771Z,13.80
2019-04-29T13:11:09.972Z,13.80
2019-04-29T13:13:39.019Z,13.60
2019-04-29T13:16:21.863Z,13.50
2019-04-29T13:18:53.938Z,13.30
2019-04-29T13:21:23.600Z,13.10
2019-04-29T13:24:04.912Z,12.90
2019-04-29T13:26:28.312Z,12.70
2019-04-29T13:29:00.477Z,11.20
2019-04-29T13:33:22.649Z,12.40
2019-04-29T13:34:03.219Z,12.20
2019-04-29T13:36:28.179Z,12.10
2019-04-29T13:38:57.406Z,12.00
2019-04-29T13:41:26.801Z,11.90
2019-04-29T13:44:03.952Z,11.90
2019-04-29T13:46:29.979Z,11.80
2019-04-29T13:49:12.126Z,11.60
2019-04-29T13:51:38.038Z,11.60
2019-04-29T13:54:07.077Z,11.50
2019-04-29T13:56:54.682Z,11.90
2019-04-29T13:59:10.836Z,11.40
2019-04-29T14:02:01.462Z,11.40
2019-04-29T14:04:26.261Z,11.30
2019-04-29T14:06:57.017Z,10.60
2019-04-29T14:09:26.062Z,11.20
2019-04-29T14:12:05.636Z,11.00
2019-04-29T14:14:28.292Z,11.00
2019-04-29T14:17:11.921Z,11.10
2019-04-29T14:19:40.831Z,11.10
2019-04-29T14:21:58.054Z,11.10
2019-04-29T14:24:27.115Z,11.20
2019-04-29T14:26:56.254Z,11.00
2019-04-29T14:29:28.281Z,10.90
2019-04-29T14:31:59.108Z,10.90
2019-04-29T14:34:34.785Z,10.90
2019-04-29T14:37:19.813Z,10.90
2019-04-29T14:39:37.063Z,10.90
2019-04-29T14:42:15.672Z,10.90
2019-04-29T14:44:55.204Z,10.80
2019-04-29T14:47:31.562Z,10.80
2019-04-29T14:50:02.219Z,10.80
2019-04-29T14:52:31.236Z,10.70
2019-04-29T14:55:00.295Z,10.60
2019-04-29T14:57:29.339Z,10.50
2019-04-29T14:59:58.553Z,10.40
2019-04-29T15:02:27.888Z,10.40
2019-04-29T15:04:57.014Z,10.50
2019-04-29T15:07:27.727Z,10.40
2019-04-29T15:09:58.163Z,10.50
2019-04-29T15:12:52.377Z,10.60
2019-04-29T15:15:29.817Z,10.60
2019-04-29T15:18:00.182Z,10.60
2019-04-29T15:20:34.237Z,10.70
2019-04-29T15:23:03.725Z,10.70
2019-04-29T15:25:32.799Z,10.70
2019-04-29T15:28:01.922Z,10.80
2019-04-29T15:30:31.670Z,10.90
2019-04-29T15:33:01.763Z,10.90
2019-04-29T15:35:30.910Z,10.90
2019-04-29T15:37:59.995Z,10.90
2019-04-29T15:40:29.219Z,10.90
2019-04-29T15:42:58.656Z,10.90
2019-04-29T15:45:32.010Z,10.90
2019-04-29T15:47:58.597Z,10.90
2019-04-29T15:50:27.741Z,10.90
2019-04-29T15:52:58.737Z,10.80
2019-04-29T15:55:27.585Z,10.70
2019-04-29T15:57:57.933Z,10.60
2019-04-29T16:00:27.537Z,10.50
2019-04-29T16:02:57.879Z,10.50
2019-04-29T16:06:04.624Z,10.50
2019-04-29T16:08:19.140Z,10.50
2019-04-29T16:11:06.196Z,10.40
2019-04-29T16:13:35.283Z,10.40
2019-04-29T16:16:04.467Z,10.30
2019-04-29T16:18:33.643Z,10.20
2019-04-29T16:21:02.743Z,10.10
2019-04-29T16:23:32.954Z,10.10
2019-04-29T16:26:02.623Z,10.00
2019-04-29T16:28:36.538Z,9.90
2019-04-29T16:31:05.075Z,9.80
2019-04-29T16:33:33.185Z,9.80
2019-04-29T16:36:04.878Z,9.70
2019-04-29T16:38:33.082Z,9.70
2019-04-29T16:41:20.664Z,9.60
2019-04-29T16:43:51.207Z,9.60
2019-04-29T16:46:35.448Z,9.50
2019-04-29T16:48:58.738Z,9.50
2019-04-29T16:51:27.931Z,9.50
2019-04-29T16:53:57.125Z,9.40
2019-04-29T16:56:26.246Z,9.40
2019-04-29T16:58:55.377Z,9.30
2019-04-29T17:01:24.673Z,9.90
2019-04-29T17:03:53.754Z,9.20
2019-04-29T17:06:23.096Z,9.20
2019-04-29T17:09:03.308Z,9.20
2019-04-29T17:11:31.871Z,9.20
2019-04-29T17:14:03.488Z,9.10
2019-04-29T17:16:31.836Z,9.10
2019-04-29T17:19:01.986Z,9.10
2019-04-29T17:21:31.419Z,9.00
2019-04-29T17:24:00.485Z,9.00
2019-04-29T17:26:31.190Z,9.00
2019-04-29T17:29:11.730Z,9.00
2019-04-29T17:31:38.349Z,9.00
2019-04-29T17:34:09.569Z,9.00
2019-04-29T17:36:38.999Z,9.00
2019-04-29T17:39:08.515Z,9.00
2019-04-29T17:41:37.707Z,8.90
2019-04-29T17:44:24.871Z,8.90
2019-04-29T17:47:07.062Z,8.80
2019-04-29T17:49:45.764Z,8.70
2019-04-29T17:52:17.940Z,8.70
2019-04-29T17:54:48.762Z,8.60
2019-04-29T17:57:28.261Z,8.50
2019-04-29T18:00:05.053Z,8.60
2019-04-29T18:02:39.313Z,8.50
2019-04-29T18:05:10.161Z,8.40
2019-04-29T18:07:45.478Z,8.40
2019-04-29T18:10:29.428Z,8.30
2019-04-29T18:12:56.760Z,8.30
2019-04-29T18:15:27.495Z,8.20
2019-04-29T18:18:00.432Z,8.20
2019-04-29T18:20:38.265Z,8.10
2019-04-29T18:23:25.058Z,8.00
2019-04-29T18:25:55.840Z,8.10
2019-04-29T18:28:25.218Z,8.10
2019-04-29T18:30:57.695Z,8.00
2019-04-29T18:33:30.054Z,7.90
2019-04-29T18:36:03.796Z,8.00
2019-04-29T18:38:26.552Z,8.00
2019-04-29T18:40:55.984Z,7.90
2019-04-29T18:43:26.609Z,7.90
2019-04-29T18:45:58.876Z,7.90
2019-04-29T18:48:27.152Z,7.90
2019-04-29T18:50:57.058Z,7.40
2019-04-29T18:53:26.508Z,7.80
2019-04-29T18:55:55.542Z,7.80
2019-04-29T18:58:25.079Z,7.70
2019-04-29T19:00:56.344Z,7.60
2019-04-29T19:03:29.780Z,7.60
2019-04-29T19:06:03.158Z,7.60
2019-04-29T19:08:31.848Z,7.70
2019-04-29T19:11:01.011Z,7.60
2019-04-29T19:13:30.895Z,7.60
2019-04-29T19:16:09.364Z,7.60
2019-04-29T19:18:30.938Z,7.50
2019-04-29T19:21:00.012Z,7.40
2019-04-29T19:23:29.710Z,7.30
2019-04-29T19:25:59.140Z,7.20
2019-04-29T19:28:31.118Z,7.20
2019-04-29T19:31:03.081Z,7.10
2019-04-29T19:33:30.641Z,7.00
2019-04-29T19:36:00.432Z,7.00
2019-04-29T19:38:29.634Z,7.00
2019-04-29T19:40:58.830Z,6.80
2019-04-29T19:43:27.862Z,6.60
2019-04-29T19:45:57.448Z,6.60
2019-04-29T19:48:28.393Z,6.50
2019-04-29T19:51:14.062Z,6.30
2019-04-29T19:53:28.082Z,6.00
2019-04-29T19:56:04.150Z,5.90
2019-04-29T19:58:31.326Z,5.90
2019-04-29T20:01:10.808Z,5.90
2019-04-29T20:03:37.662Z,5.90
2019-04-29T20:06:09.129Z,5.70
2019-04-29T20:08:50.961Z,5.70
2019-04-29T20:11:14.205Z,5.70
2019-04-29T20:13:40.963Z,5.70
2019-04-29T20:16:22.937Z,5.80
2019-04-29T20:18:58.718Z,5.90
2019-04-29T20:21:24.816Z,5.80
2019-04-29T20:23:53.074Z,5.70
2019-04-29T20:26:28.663Z,5.70
2019-04-29T20:28:55.381Z,5.70
2019-04-29T20:31:22.709Z,5.90
2019-04-29T20:33:52.328Z,5.90
2019-04-29T20:36:32.933Z,6.00
2019-04-29T20:38:52.400Z,6.10
2019-04-29T20:41:38.120Z,6.10
2019-04-29T20:43:52.594Z,6.30
2019-04-29T20:46:21.904Z,6.30
2019-04-29T20:48:55.801Z,6.20
2019-04-29T20:51:23.221Z,6.20
2019-04-29T20:53:56.020Z,6.20
2019-04-29T20:56:28.891Z,6.20
2019-04-29T20:58:56.024Z,6.20
2019-04-29T21:01:29.622Z,6.20
2019-04-29T21:03:58.760Z,6.10
2019-04-29T21:06:27.945Z,5.90
2019-04-29T21:08:57.058Z,5.70
2019-04-29T21:11:35.644Z,5.60
2019-04-29T21:14:07.428Z,5.60
2019-04-29T21:16:41.234Z,5.70
2019-04-29T21:19:11.093Z,5.70
2019-04-29T21:21:42.103Z,5.70
2019-04-29T21:24:14.157Z,5.60
2019-04-29T21:26:44.585Z,5.50
2019-04-29T21:29:15.807Z,5.40
2019-04-29T21:31:46.001Z,5.40
2019-04-29T21:34:17.414Z,5.40
2019-04-29T21:37:06.594Z,5.40
2019-04-29T21:39:42.293Z,5.30
2019-04-29T21:42:13.067Z,5.30
2019-04-29T21:44:43.137Z,5.20
2019-04-29T21:47:12.246Z,5.10
2019-04-29T21:49:45.300Z,5.00
2019-04-29T21:52:12.045Z,4.90
2019-04-29T21:54:44.500Z,4.90
2019-04-29T21:57:11.978Z,4.80
2019-04-29T21:59:41.398Z,4.80
2019-04-29T22:02:12.996Z,4.80
2019-04-29T22:04:42.167Z,4.80
2019-04-29T22:07:11.890Z,4.80
2019-04-29T22:09:47.267Z,4.90
2019-04-29T22:12:14.183Z,5.00
2019-04-29T22:14:45.135Z,5.00
2019-04-29T22:17:14.838Z,5.10
2019-04-29T22:19:45.116Z,5.20
2019-04-29T22:22:14.273Z,5.40
2019-04-29T22:24:43.417Z,5.40
2019-04-29T22:27:12.514Z,5.40
2019-04-29T22:29:41.697Z,5.40
2019-04-29T22:32:14.671Z,5.40
2019-04-29T22:34:42.259Z,5.10
2019-04-29T22:37:11.599Z,4.90
2019-04-29T22:39:40.694Z,4.80
2019-04-29T22:42:17.785Z,4.80
2019-04-29T22:44:47.064Z,4.80
2019-04-29T22:47:17.225Z,4.90
2019-04-29T22:49:47.033Z,5.00
2019-04-29T22:52:17.097Z,4.00
2019-04-29T22:54:46.158Z,4.70
2019-04-29T22:57:15.614Z,4.80
2019-04-29T22:59:45.398Z,4.90
2019-04-29T23:02:15.744Z,4.90
2019-04-29T23:04:49.137Z,4.70
2019-04-29T23:07:17.654Z,5.80
2019-04-29T23:09:47.929Z,4.60
2019-04-29T23:12:18.498Z,4.60
2019-04-29T23:14:47.814Z,4.80
2019-04-29T23:17:17.040Z,6.10
2019-04-29T23:19:50.711Z,4.90
2019-04-29T23:22:22.102Z,5.00
2019-04-29T23:25:05.656Z,5.00
2019-04-29T23:27:36.075Z,5.10
2019-04-29T23:30:07.316Z,5.00
2019-04-29T23:32:39.445Z,5.00
2019-04-29T23:35:09.636Z,5.10
2019-04-29T23:37:38.250Z,5.10
2019-04-29T23:40:07.776Z,5.10
2019-04-29T23:42:37.719Z,4.90
2019-04-29T23:45:07.027Z,4.60
2019-04-29T23:47:36.086Z,4.30
2019-04-29T23:50:05.770Z,4.10
2019-04-29T23:52:35.901Z,4.10
2019-04-29T23:55:07.794Z,4.00
2019-04-29T23:57:38.520Z,3.70
